METAR Formatted Surface Weather Observation
Issued by NWS

Home | Current Version | Previous Version | Text Only | Print | Product List | Glossary On
Versions: 1 2 3 4 5 6 7 8 9 10 11 12 13 14
000
SAUS41 KCAR 180157
MTRGNR
METAR KGNR 180156Z AUTO 31024G36KT M06/M08 A2976 RMK AO1 PK WND
32039/0122 SLP099 T10561083



USA.gov is the U.S. government's official web portal to all federal, state and local government web resources and services.